createdAt,value
2022-10-19T00:00:11.362Z,86.24
2022-10-19T00:05:26.077Z,86.04
2022-10-19T00:10:21.200Z,85.90
2022-10-19T00:15:16.039Z,85.86
2022-10-19T00:20:13.459Z,85.77
2022-10-19T00:25:11.018Z,85.70
2022-10-19T00:30:08.215Z,85.58
2022-10-19T00:35:03.277Z,85.36
2022-10-19T00:39:58.169Z,85.24
2022-10-19T00:45:16.043Z,85.11
2022-10-19T00:50:15.082Z,85.01
2022-10-19T00:55:12.171Z,85.02
2022-10-19T01:00:11.004Z,85.00
2022-10-19T01:05:09.109Z,85.00
2022-10-19T01:10:05.889Z,85.08
2022-10-19T01:15:18.243Z,85.13
2022-10-19T01:20:51.344Z,85.26
2022-10-19T01:26:02.200Z,85.38
2022-10-19T01:31:05.615Z,85.50
2022-10-19T01:36:12.971Z,85.60
2022-10-19T01:41:17.605Z,85.68
2022-10-19T01:46:18.174Z,85.68
2022-10-19T01:51:19.314Z,85.74
2022-10-19T01:56:17.817Z,85.77
2022-10-19T02:01:16.560Z,85.86
2022-10-19T02:06:17.810Z,85.89
2022-10-19T02:11:12.341Z,85.89
2022-10-19T02:16:16.574Z,85.82
2022-10-19T02:21:12.063Z,85.81
2022-10-19T02:26:07.779Z,85.75
2022-10-19T02:31:04.387Z,85.70
2022-10-19T02:36:00.228Z,85.68
2022-10-19T02:41:07.245Z,85.58
2022-10-19T02:46:11.385Z,85.47
2022-10-19T02:51:26.626Z,85.46
2022-10-19T02:56:22.222Z,85.49
2022-10-19T03:01:17.281Z,85.46
2022-10-19T03:06:12.430Z,85.51
2022-10-19T03:11:07.451Z,85.64
2022-10-19T03:16:10.440Z,85.74
2022-10-19T03:21:08.982Z,85.87
2022-10-19T03:26:04.345Z,86.02
2022-10-19T03:31:00.182Z,86.18
2022-10-19T03:36:17.996Z,86.37
2022-10-19T03:41:13.989Z,86.46
2022-10-19T03:46:09.446Z,86.57
2022-10-19T03:51:08.062Z,86.62
2022-10-19T03:56:12.537Z,86.67
2022-10-19T04:01:11.404Z,86.60
2022-10-19T04:06:11.492Z,86.55
2022-10-19T04:11:10.427Z,86.50
2022-10-19T04:16:07.051Z,86.41
2022-10-19T04:21:04.676Z,86.33
2022-10-19T04:26:03.569Z,86.30
2022-10-19T04:31:01.916Z,86.23
2022-10-19T04:36:00.845Z,86.20
2022-10-19T04:40:56.114Z,86.14
2022-10-19T04:45:50.999Z,86.09
2022-10-19T04:50:45.689Z,86.00
2022-10-19T04:55:48.206Z,85.89
2022-10-19T05:00:43.039Z,85.80
2022-10-19T05:05:38.166Z,85.73
2022-10-19T05:10:34.142Z,85.69
2022-10-19T05:15:28.952Z,85.60
2022-10-19T05:20:24.828Z,85.51
2022-10-19T05:25:20.037Z,85.49
2022-10-19T05:30:14.872Z,85.43
2022-10-19T05:35:11.030Z,85.41
2022-10-19T05:40:09.968Z,85.40
2022-10-19T05:45:06.647Z,85.33
2022-10-19T05:50:01.773Z,85.21
2022-10-19T05:54:57.819Z,85.09
2022-10-19T05:59:56.166Z,85.00
2022-10-19T06:04:51.665Z,84.82
2022-10-19T06:09:47.294Z,84.64
2022-10-19T06:14:42.783Z,84.53
2022-10-19T06:19:38.436Z,84.37
2022-10-19T06:24:33.512Z,84.12
2022-10-19T06:29:28.620Z,83.98
2022-10-19T06:34:24.405Z,83.71
2022-10-19T06:39:19.921Z,83.53
2022-10-19T06:44:14.797Z,83.63
2022-10-19T06:49:14.312Z,83.58
2022-10-19T06:54:09.800Z,83.51
2022-10-19T06:59:04.828Z,83.56
2022-10-19T07:03:59.458Z,83.54
2022-10-19T07:08:54.565Z,83.49
2022-10-19T07:13:49.253Z,83.42
2022-10-19T07:18:44.187Z,83.35
2022-10-19T07:23:41.549Z,83.23
2022-10-19T07:28:36.716Z,83.07
2022-10-19T07:33:31.686Z,82.94
2022-10-19T07:38:26.802Z,82.94
2022-10-19T07:43:21.141Z,82.74
2022-10-19T07:48:16.201Z,82.33
2022-10-19T07:53:11.072Z,81.96
2022-10-19T07:58:05.856Z,81.78
2022-10-19T08:03:31.699Z,81.51
2022-10-19T08:08:15.541Z,81.08
2022-10-19T08:13:11.111Z,80.93
2022-10-19T08:18:06.416Z,80.72
2022-10-19T08:23:01.539Z,80.49
2022-10-19T08:27:56.973Z,80.66
2022-10-19T08:32:52.217Z,80.89
2022-10-19T08:37:47.928Z,81.12
2022-10-19T08:42:57.325Z,81.49
2022-10-19T08:48:21.526Z,81.86
2022-10-19T08:53:27.396Z,81.97
2022-10-19T08:58:47.110Z,82.21
2022-10-19T09:03:55.403Z,82.38
2022-10-19T09:08:55.480Z,82.64
2022-10-19T09:14:04.805Z,82.75
2022-10-19T09:19:00.051Z,82.82
2022-10-19T09:24:04.122Z,82.82
2022-10-19T09:29:07.220Z,82.69
2022-10-19T09:34:11.906Z,82.43
2022-10-19T09:39:07.266Z,82.29
2022-10-19T09:44:02.584Z,81.45
2022-10-19T09:49:01.194Z,79.51
2022-10-19T09:53:56.992Z,79.26
2022-10-19T09:58:55.029Z,79.53
2022-10-19T10:03:55.238Z,79.95
2022-10-19T10:08:57.555Z,80.40
2022-10-19T10:13:55.782Z,80.68
2022-10-19T10:19:01.329Z,80.89
2022-10-19T10:24:16.411Z,80.92
2022-10-19T10:29:28.971Z,80.88
2022-10-19T10:34:46.018Z,80.61
2022-10-19T10:39:46.763Z,80.78
2022-10-19T10:44:50.826Z,80.46
2022-10-19T10:49:56.136Z,79.26
2022-10-19T10:55:02.714Z,78.73
2022-10-19T11:00:07.571Z,78.66
2022-10-19T11:05:10.835Z,78.61
2022-10-19T11:10:20.350Z,77.61
2022-10-19T11:15:23.705Z,77.10
2022-10-19T11:20:19.251Z,76.21
2022-10-19T11:25:38.176Z,74.91
2022-10-19T11:30:42.819Z,74.02
2022-10-19T11:35:52.601Z,72.79
2022-10-19T11:41:19.036Z,71.36
2022-10-19T11:46:25.757Z,70.71
2022-10-19T11:51:32.832Z,70.07
2022-10-19T11:56:58.055Z,68.92
2022-10-19T12:02:03.035Z,66.15
2022-10-19T12:07:15.582Z,65.07
2022-10-19T12:12:25.244Z,62.33
2022-10-19T12:17:29.490Z,61.84
2022-10-19T12:22:29.346Z,61.49
2022-10-19T12:27:32.970Z,62.57
2022-10-19T12:32:31.353Z,63.20
2022-10-19T12:37:33.038Z,62.54
2022-10-19T12:42:38.816Z,61.79
2022-10-19T12:47:34.720Z,60.22
2022-10-19T12:52:44.996Z,58.56
2022-10-19T12:57:47.356Z,57.13
2022-10-19T13:02:44.201Z,56.22
2022-10-19T13:07:39.669Z,55.67
2022-10-19T13:12:49.709Z,53.85
2022-10-19T13:17:45.922Z,53.55
2022-10-19T13:22:41.716Z,54.01
2022-10-19T13:27:40.639Z,55.06
2022-10-19T13:32:42.699Z,56.24
2022-10-19T13:37:38.314Z,58.10
2022-10-19T13:42:33.721Z,58.78
2022-10-19T13:47:39.348Z,59.25
2022-10-19T13:53:01.179Z,59.83
2022-10-19T13:58:40.208Z,60.28
2022-10-19T14:03:57.437Z,61.37
2022-10-19T14:09:38.084Z,62.15
2022-10-19T14:19:47.162Z,63.99
2022-10-19T14:24:42.736Z,64.11
2022-10-19T14:29:47.133Z,64.25
2022-10-19T14:34:43.983Z,64.86
2022-10-19T14:39:38.821Z,65.22
2022-10-19T14:44:41.159Z,65.34
2022-10-19T14:49:36.009Z,65.07
2022-10-19T14:54:36.892Z,64.63
2022-10-19T14:59:37.711Z,64.28
2022-10-19T15:04:38.669Z,63.61
2022-10-19T15:09:47.872Z,63.74
2022-10-19T15:14:45.421Z,63.69
2022-10-19T15:19:43.021Z,63.77
2022-10-19T15:24:38.386Z,63.80
2022-10-19T15:29:33.056Z,64.03
2022-10-19T15:34:31.026Z,64.28
2022-10-19T15:39:39.845Z,64.39
2022-10-19T15:44:44.318Z,64.47
2022-10-19T15:49:59.160Z,64.64
2022-10-19T15:54:56.259Z,64.80
2022-10-19T15:59:52.440Z,65.09
2022-10-19T16:04:48.073Z,65.21
2022-10-19T16:09:43.331Z,65.36
2022-10-19T16:14:38.131Z,65.49
2022-10-19T16:19:33.123Z,65.66
2022-10-19T16:24:28.716Z,65.93
2022-10-19T16:29:28.153Z,66.25
2022-10-19T16:34:24.200Z,66.42
2022-10-19T16:39:20.040Z,66.58
2022-10-19T16:44:15.293Z,66.73
2022-10-19T16:49:10.526Z,66.96
2022-10-19T16:54:09.227Z,67.18
2022-10-19T16:59:06.225Z,67.39
2022-10-19T17:04:01.259Z,67.71
2022-10-19T17:14:14.725Z,68.33
2022-10-19T17:19:11.435Z,68.70
2022-10-19T17:24:13.841Z,69.09
2022-10-19T17:29:12.718Z,69.40
2022-10-19T17:34:08.682Z,69.74
2022-10-19T17:39:08.206Z,70.04
2022-10-19T17:44:05.920Z,70.29
2022-10-19T17:49:01.140Z,70.60
2022-10-19T17:53:59.403Z,70.77
2022-10-19T17:58:55.812Z,70.99
2022-10-19T18:03:52.020Z,71.19
2022-10-19T18:08:49.915Z,71.37
2022-10-19T18:13:45.701Z,71.60
2022-10-19T18:18:45.184Z,71.89
2022-10-19T18:23:41.809Z,72.17
2022-10-19T18:28:37.750Z,72.34
2022-10-19T18:33:32.655Z,72.54
2022-10-19T18:38:27.524Z,72.68
2022-10-19T18:43:22.585Z,72.90
2022-10-19T18:48:17.936Z,73.08
2022-10-19T18:53:14.129Z,73.31
2022-10-19T18:58:10.205Z,73.65
2022-10-19T19:03:06.957Z,73.87
2022-10-19T19:08:03.157Z,74.09
2022-10-19T19:12:58.232Z,74.28
2022-10-19T19:17:56.052Z,74.50
2022-10-19T19:22:51.013Z,74.72
2022-10-19T19:27:46.460Z,74.89
2022-10-19T19:32:43.427Z,75.15
2022-10-19T19:37:39.186Z,75.43
2022-10-19T19:42:35.428Z,75.63
2022-10-19T19:47:30.239Z,75.87
2022-10-19T19:52:25.421Z,76.00
2022-10-19T19:57:19.823Z,76.19
2022-10-19T20:02:16.287Z,76.31
2022-10-19T20:07:11.204Z,76.40
2022-10-19T20:12:06.653Z,76.52
2022-10-19T20:17:04.192Z,76.66
2022-10-19T20:21:59.977Z,76.82
2022-10-19T20:26:56.569Z,76.94
2022-10-19T20:31:51.716Z,77.10
2022-10-19T20:36:47.268Z,77.31
2022-10-19T20:41:43.800Z,77.51
2022-10-19T20:46:39.379Z,77.64
2022-10-19T20:51:37.965Z,77.85
2022-10-19T20:56:36.502Z,77.99
2022-10-19T21:01:35.177Z,78.18
2022-10-19T21:06:35.274Z,78.42
2022-10-19T21:11:32.791Z,78.64
2022-10-19T21:16:33.288Z,78.98
2022-10-19T21:21:31.362Z,79.19
2022-10-19T21:26:28.674Z,79.41
2022-10-19T21:31:25.890Z,79.73
2022-10-19T21:36:24.534Z,79.90
2022-10-19T21:41:25.490Z,80.19
2022-10-19T21:46:23.684Z,80.32
2022-10-19T21:51:37.724Z,80.47
2022-10-19T21:56:33.689Z,80.64
2022-10-19T22:01:35.972Z,80.72
2022-10-19T22:06:36.479Z,80.79
2022-10-19T22:11:31.893Z,80.80
2022-10-19T22:16:29.147Z,80.81
2022-10-19T22:21:26.589Z,80.86
2022-10-19T22:26:26.616Z,80.94
2022-10-19T22:31:20.922Z,80.99
2022-10-19T22:36:16.731Z,81.07
2022-10-19T22:42:23.264Z,81.25
2022-10-19T22:47:36.902Z,81.43
2022-10-19T22:52:32.616Z,81.52
2022-10-19T22:57:27.766Z,81.67
2022-10-19T23:02:22.468Z,81.81
2022-10-19T23:07:17.630Z,81.97
2022-10-19T23:12:12.447Z,82.11
2022-10-19T23:17:07.419Z,82.27
2022-10-19T23:22:01.512Z,82.36
2022-10-19T23:26:56.602Z,82.49
2022-10-19T23:31:51.186Z,82.64
2022-10-19T23:36:46.235Z,82.67
2022-10-19T23:41:41.026Z,82.62
2022-10-19T23:46:38.866Z,82.69
2022-10-19T23:51:33.748Z,82.72
2022-10-19T23:56:31.379Z,82.74
